Codo, Brazil
Current Conditions -  °F | °C
As of 11:00 AM on Sunday 25 Jan 2015 (Local Time) from SBTE Reporting Station
Broken Clouds Broken Clouds  
Wind Chill: 82°   Ceiling: 2500
Heat Index: 87°   Visibility: 6mi
Dew Point: 72°   Wind: 5mph
Humidity: 70%   Direction: 110°ESE
Pressure: 29.91"   Gusts: NA
Location:  4.46°S, 43.89°W
Report Text: SBTE 251400Z 11004KT 9999 BKN025 28/22 Q1013
Loading
Personal Weather Stations






























Interactive Weather Map New forecast layout! Learn more

10-Day Weather Forecast

Advertisements
Track Severe Weather on mobile